sensor_id;sensor_type;location;lat;lon;timestamp;P1;durP1;ratioP1;P2;durP2;ratioP2
59167;SDS011;70412;55.048;73.268;2024-03-02T00:00:42;2.35;;;1.25;;
59167;SDS011;70412;55.048;73.268;2024-03-02T00:03:44;2.83;;;1.00;;
59167;SDS011;70412;55.048;73.268;2024-03-02T00:06:47;1.10;;;0.70;;
59167;SDS011;70412;55.048;73.268;2024-03-02T00:09:53;3.55;;;1.75;;
59167;SDS011;70412;55.048;73.268;2024-03-02T00:12:58;4.93;;;1.92;;
59167;SDS011;70412;55.048;73.268;2024-03-02T00:16:01;6.32;;;1.90;;
59167;SDS011;70412;55.048;73.268;2024-03-02T00:19:06;4.22;;;1.67;;
59167;SDS011;70412;55.048;73.268;2024-03-02T00:22:10;7.80;;;2.60;;
59167;SDS011;70412;55.048;73.268;2024-03-02T00:25:14;13.00;;;2.60;;
59167;SDS011;70412;55.048;73.268;2024-03-02T00:31:31;3.10;;;1.47;;
59167;SDS011;70412;55.048;73.268;2024-03-02T00:34:34;2.13;;;1.00;;
59167;SDS011;70412;55.048;73.268;2024-03-02T00:37:36;3.28;;;1.50;;
59167;SDS011;70412;55.048;73.268;2024-03-02T00:40:39;3.72;;;1.42;;
59167;SDS011;70412;55.048;73.268;2024-03-02T00:43:56;3.00;;;1.40;;
59167;SDS011;70412;55.048;73.268;2024-03-02T00:47:07;3.40;;;1.17;;
59167;SDS011;70412;55.048;73.268;2024-03-02T00:50:10;3.22;;;1.35;;
59167;SDS011;70412;55.048;73.268;2024-03-02T00:53:12;3.25;;;1.48;;
59167;SDS011;70412;55.048;73.268;2024-03-02T00:56:26;3.95;;;1.00;;
59167;SDS011;70412;55.048;73.268;2024-03-02T00:59:29;3.35;;;1.35;;
59167;SDS011;70412;55.048;73.268;2024-03-02T01:02:33;4.25;;;1.40;;
59167;SDS011;70412;55.048;73.268;2024-03-02T01:05:36;3.53;;;1.63;;
59167;SDS011;70412;55.048;73.268;2024-03-02T01:08:38;6.28;;;1.83;;
59167;SDS011;70412;55.048;73.268;2024-03-02T01:11:53;4.03;;;1.38;;
59167;SDS011;70412;55.048;73.268;2024-03-02T01:14:55;6.50;;;1.65;;
59167;SDS011;70412;55.048;73.268;2024-03-02T01:17:58;2.33;;;1.08;;
59167;SDS011;70412;55.048;73.268;2024-03-02T01:21:01;5.15;;;1.80;;
59167;SDS011;70412;55.048;73.268;2024-03-02T01:24:05;6.80;;;1.90;;
59167;SDS011;70412;55.048;73.268;2024-03-02T01:27:08;11.07;;;2.83;;
59167;SDS011;70412;55.048;73.268;2024-03-02T01:30:10;19.10;;;5.85;;
59167;SDS011;70412;55.048;73.268;2024-03-02T01:33:13;11.98;;;2.33;;
59167;SDS011;70412;55.048;73.268;2024-03-02T01:36:16;8.65;;;2.70;;
59167;SDS011;70412;55.048;73.268;2024-03-02T01:39:18;6.30;;;2.08;;
59167;SDS011;70412;55.048;73.268;2024-03-02T01:42:21;7.20;;;1.97;;
59167;SDS011;70412;55.048;73.268;2024-03-02T01:45:24;16.70;;;4.60;;
59167;SDS011;70412;55.048;73.268;2024-03-02T01:48:26;22.63;;;5.45;;
59167;SDS011;70412;55.048;73.268;2024-03-02T01:51:29;12.63;;;4.15;;
59167;SDS011;70412;55.048;73.268;2024-03-02T01:54:32;20.27;;;6.10;;
59167;SDS011;70412;55.048;73.268;2024-03-02T01:57:34;28.27;;;6.30;;
59167;SDS011;70412;55.048;73.268;2024-03-02T02:00:37;26.58;;;5.72;;
59167;SDS011;70412;55.048;73.268;2024-03-02T02:03:40;21.92;;;5.30;;
59167;SDS011;70412;55.048;73.268;2024-03-02T02:06:45;25.60;;;5.40;;
59167;SDS011;70412;55.048;73.268;2024-03-02T02:09:47;24.13;;;5.20;;
59167;SDS011;70412;55.048;73.268;2024-03-02T02:12:50;13.52;;;4.55;;
59167;SDS011;70412;55.048;73.268;2024-03-02T02:15:53;25.02;;;4.90;;
59167;SDS011;70412;55.048;73.268;2024-03-02T02:18:55;25.00;;;6.70;;
59167;SDS011;70412;55.048;73.268;2024-03-02T02:21:58;19.38;;;4.50;;
59167;SDS011;70412;55.048;73.268;2024-03-02T02:25:01;27.90;;;7.47;;
59167;SDS011;70412;55.048;73.268;2024-03-02T02:28:03;20.80;;;5.22;;
59167;SDS011;70412;55.048;73.268;2024-03-02T02:31:06;22.00;;;4.75;;
59167;SDS011;70412;55.048;73.268;2024-03-02T02:34:09;26.02;;;6.35;;
59167;SDS011;70412;55.048;73.268;2024-03-02T02:37:11;29.10;;;7.68;;
59167;SDS011;70412;55.048;73.268;2024-03-02T02:40:14;40.72;;;8.10;;
59167;SDS011;70412;55.048;73.268;2024-03-02T02:43:16;43.28;;;10.02;;
59167;SDS011;70412;55.048;73.268;2024-03-02T02:46:19;35.30;;;8.40;;
59167;SDS011;70412;55.048;73.268;2024-03-02T02:49:24;40.42;;;9.60;;
59167;SDS011;70412;55.048;73.268;2024-03-02T02:52:39;24.27;;;6.47;;
59167;SDS011;70412;55.048;73.268;2024-03-02T02:55:43;27.33;;;6.57;;
59167;SDS011;70412;55.048;73.268;2024-03-02T02:58:45;24.88;;;6.65;;
59167;SDS011;70412;55.048;73.268;2024-03-02T03:01:48;25.33;;;6.60;;
59167;SDS011;70412;55.048;73.268;2024-03-02T03:04:53;35.40;;;7.60;;
59167;SDS011;70412;55.048;73.268;2024-03-02T03:07:56;19.98;;;5.25;;
59167;SDS011;70412;55.048;73.268;2024-03-02T03:10:58;23.98;;;7.05;;
59167;SDS011;70412;55.048;73.268;2024-03-02T03:14:01;35.30;;;7.72;;
59167;SDS011;70412;55.048;73.268;2024-03-02T03:17:03;20.85;;;6.15;;
59167;SDS011;70412;55.048;73.268;2024-03-02T03:20:06;25.20;;;7.22;;
59167;SDS011;70412;55.048;73.268;2024-03-02T03:23:11;19.07;;;4.53;;
59167;SDS011;70412;55.048;73.268;2024-03-02T03:26:18;26.95;;;5.82;;
59167;SDS011;70412;55.048;73.268;2024-03-02T03:29:23;28.83;;;5.78;;
59167;SDS011;70412;55.048;73.268;2024-03-02T03:32:26;27.15;;;6.70;;
59167;SDS011;70412;55.048;73.268;2024-03-02T03:35:29;42.97;;;9.73;;
59167;SDS011;70412;55.048;73.268;2024-03-02T03:38:31;35.60;;;6.97;;
59167;SDS011;70412;55.048;73.268;2024-03-02T03:41:34;25.35;;;8.25;;
59167;SDS011;70412;55.048;73.268;2024-03-02T03:44:37;27.63;;;7.35;;
59167;SDS011;70412;55.048;73.268;2024-03-02T03:47:41;24.50;;;5.25;;
59167;SDS011;70412;55.048;73.268;2024-03-02T03:50:43;25.48;;;6.68;;
59167;SDS011;70412;55.048;73.268;2024-03-02T03:53:45;27.05;;;5.60;;
59167;SDS011;70412;55.048;73.268;2024-03-02T03:56:48;26.67;;;5.82;;
59167;SDS011;70412;55.048;73.268;2024-03-02T03:59:50;17.52;;;5.03;;
59167;SDS011;70412;55.048;73.268;2024-03-02T04:02:53;35.10;;;7.25;;
59167;SDS011;70412;55.048;73.268;2024-03-02T04:05:55;16.98;;;4.70;;
59167;SDS011;70412;55.048;73.268;2024-03-02T04:08:58;19.52;;;5.65;;
59167;SDS011;70412;55.048;73.268;2024-03-02T04:12:00;9.55;;;2.22;;
59167;SDS011;70412;55.048;73.268;2024-03-02T04:15:05;27.45;;;7.15;;
59167;SDS011;70412;55.048;73.268;2024-03-02T04:18:08;17.02;;;4.90;;
59167;SDS011;70412;55.048;73.268;2024-03-02T04:21:11;16.60;;;4.93;;
59167;SDS011;70412;55.048;73.268;2024-03-02T04:24:14;35.92;;;9.38;;
59167;SDS011;70412;55.048;73.268;2024-03-02T04:27:16;20.30;;;5.50;;
59167;SDS011;70412;55.048;73.268;2024-03-02T04:30:19;28.38;;;7.20;;
59167;SDS011;70412;55.048;73.268;2024-03-02T04:33:22;36.20;;;7.60;;
59167;SDS011;70412;55.048;73.268;2024-03-02T04:36:24;20.92;;;4.95;;
59167;SDS011;70412;55.048;73.268;2024-03-02T04:39:27;25.35;;;6.88;;
59167;SDS011;70412;55.048;73.268;2024-03-02T04:42:30;17.50;;;4.65;;
59167;SDS011;70412;55.048;73.268;2024-03-02T04:45:32;25.17;;;7.18;;
59167;SDS011;70412;55.048;73.268;2024-03-02T04:48:35;26.83;;;5.90;;
59167;SDS011;70412;55.048;73.268;2024-03-02T04:51:38;23.27;;;5.80;;
59167;SDS011;70412;55.048;73.268;2024-03-02T04:54:40;23.67;;;6.07;;
59167;SDS011;70412;55.048;73.268;2024-03-02T04:58:01;9.27;;;3.35;;
59167;SDS011;70412;55.048;73.268;2024-03-02T05:01:04;21.73;;;5.07;;
59167;SDS011;70412;55.048;73.268;2024-03-02T05:04:07;15.63;;;4.33;;
59167;SDS011;70412;55.048;73.268;2024-03-02T05:07:13;21.65;;;6.25;;
59167;SDS011;70412;55.048;73.268;2024-03-02T05:10:16;19.92;;;4.80;;
59167;SDS011;70412;55.048;73.268;2024-03-02T05:13:19;21.50;;;5.55;;
59167;SDS011;70412;55.048;73.268;2024-03-02T05:16:22;19.58;;;6.00;;
59167;SDS011;70412;55.048;73.268;2024-03-02T05:19:25;16.55;;;4.93;;
59167;SDS011;70412;55.048;73.268;2024-03-02T05:22:28;8.55;;;3.38;;
59167;SDS011;70412;55.048;73.268;2024-03-02T05:25:31;4.78;;;2.45;;
59167;SDS011;70412;55.048;73.268;2024-03-02T05:28:36;3.55;;;1.58;;
59167;SDS011;70412;55.048;73.268;2024-03-02T05:31:39;4.30;;;1.20;;
59167;SDS011;70412;55.048;73.268;2024-03-02T05:34:42;8.85;;;1.90;;
59167;SDS011;70412;55.048;73.268;2024-03-02T05:37:45;10.18;;;3.22;;
59167;SDS011;70412;55.048;73.268;2024-03-02T05:40:47;20.38;;;4.95;;
59167;SDS011;70412;55.048;73.268;2024-03-02T05:43:50;17.38;;;5.90;;
59167;SDS011;70412;55.048;73.268;2024-03-02T05:46:52;24.83;;;6.15;;
59167;SDS011;70412;55.048;73.268;2024-03-02T05:49:55;3.25;;;1.40;;
59167;SDS011;70412;55.048;73.268;2024-03-02T05:52:57;4.55;;;1.52;;
59167;SDS011;70412;55.048;73.268;2024-03-02T05:56:00;11.60;;;3.30;;
59167;SDS011;70412;55.048;73.268;2024-03-02T05:59:02;20.08;;;4.90;;
59167;SDS011;70412;55.048;73.268;2024-03-02T06:02:14;6.38;;;2.30;;
59167;SDS011;70412;55.048;73.268;2024-03-02T06:05:16;24.30;;;6.93;;
59167;SDS011;70412;55.048;73.268;2024-03-02T06:08:20;22.40;;;5.00;;
59167;SDS011;70412;55.048;73.268;2024-03-02T06:11:22;23.95;;;6.18;;
59167;SDS011;70412;55.048;73.268;2024-03-02T06:14:25;6.50;;;2.80;;
59167;SDS011;70412;55.048;73.268;2024-03-02T06:17:28;7.22;;;2.47;;
59167;SDS011;70412;55.048;73.268;2024-03-02T06:20:31;5.47;;;2.65;;
59167;SDS011;70412;55.048;73.268;2024-03-02T06:23:33;4.85;;;2.17;;
59167;SDS011;70412;55.048;73.268;2024-03-02T06:26:37;6.47;;;2.57;;
59167;SDS011;70412;55.048;73.268;2024-03-02T06:29:41;5.95;;;2.10;;
59167;SDS011;70412;55.048;73.268;2024-03-02T06:32:43;4.55;;;1.98;;
59167;SDS011;70412;55.048;73.268;2024-03-02T06:35:46;4.90;;;2.13;;
59167;SDS011;70412;55.048;73.268;2024-03-02T06:38:48;4.32;;;2.13;;
59167;SDS011;70412;55.048;73.268;2024-03-02T06:41:51;6.70;;;2.47;;
59167;SDS011;70412;55.048;73.268;2024-03-02T06:44:56;6.00;;;2.38;;
59167;SDS011;70412;55.048;73.268;2024-03-02T06:47:59;11.75;;;4.15;;
59167;SDS011;70412;55.048;73.268;2024-03-02T06:51:01;6.30;;;2.85;;
59167;SDS011;70412;55.048;73.268;2024-03-02T06:54:03;6.22;;;2.47;;
59167;SDS011;70412;55.048;73.268;2024-03-02T06:57:06;9.80;;;3.15;;
59167;SDS011;70412;55.048;73.268;2024-03-02T07:00:09;23.95;;;7.03;;
59167;SDS011;70412;55.048;73.268;2024-03-02T07:03:12;22.65;;;6.93;;
59167;SDS011;70412;55.048;73.268;2024-03-02T07:06:15;25.10;;;9.13;;
59167;SDS011;70412;55.048;73.268;2024-03-02T07:09:18;15.77;;;5.55;;
59167;SDS011;70412;55.048;73.268;2024-03-02T07:12:24;12.27;;;4.43;;
59167;SDS011;70412;55.048;73.268;2024-03-02T07:15:26;15.90;;;4.90;;
59167;SDS011;70412;55.048;73.268;2024-03-02T07:18:32;24.50;;;7.75;;
59167;SDS011;70412;55.048;73.268;2024-03-02T07:21:35;34.93;;;11.07;;
59167;SDS011;70412;55.048;73.268;2024-03-02T07:24:41;13.80;;;5.15;;
59167;SDS011;70412;55.048;73.268;2024-03-02T07:27:45;10.02;;;3.25;;
59167;SDS011;70412;55.048;73.268;2024-03-02T07:30:57;13.48;;;4.47;;
59167;SDS011;70412;55.048;73.268;2024-03-02T07:34:01;19.98;;;5.82;;
59167;SDS011;70412;55.048;73.268;2024-03-02T07:37:03;33.67;;;7.85;;
59167;SDS011;70412;55.048;73.268;2024-03-02T07:40:08;27.05;;;6.82;;
59167;SDS011;70412;55.048;73.268;2024-03-02T07:43:13;27.98;;;5.80;;
59167;SDS011;70412;55.048;73.268;2024-03-02T07:46:15;7.00;;;3.15;;
59167;SDS011;70412;55.048;73.268;2024-03-02T07:49:30;5.47;;;2.35;;
59167;SDS011;70412;55.048;73.268;2024-03-02T07:52:32;8.73;;;3.63;;
59167;SDS011;70412;55.048;73.268;2024-03-02T07:55:35;6.90;;;3.50;;
59167;SDS011;70412;55.048;73.268;2024-03-02T07:58:38;8.00;;;2.63;;
59167;SDS011;70412;55.048;73.268;2024-03-02T08:01:40;7.10;;;2.80;;
59167;SDS011;70412;55.048;73.268;2024-03-02T08:04:43;8.68;;;3.63;;
59167;SDS011;70412;55.048;73.268;2024-03-02T08:07:47;17.52;;;5.95;;
59167;SDS011;70412;55.048;73.268;2024-03-02T08:14:20;5.55;;;3.25;;
59167;SDS011;70412;55.048;73.268;2024-03-02T08:17:23;9.25;;;3.55;;
59167;SDS011;70412;55.048;73.268;2024-03-02T08:20:25;8.55;;;3.60;;
59167;SDS011;70412;55.048;73.268;2024-03-02T08:23:28;5.97;;;3.03;;
59167;SDS011;70412;55.048;73.268;2024-03-02T08:26:30;8.13;;;3.38;;
59167;SDS011;70412;55.048;73.268;2024-03-02T08:29:36;5.85;;;2.80;;
59167;SDS011;70412;55.048;73.268;2024-03-02T08:32:50;11.40;;;4.75;;
59167;SDS011;70412;55.048;73.268;2024-03-02T08:39:20;6.30;;;3.22;;
59167;SDS011;70412;55.048;73.268;2024-03-02T08:42:23;9.98;;;3.10;;
59167;SDS011;70412;55.048;73.268;2024-03-02T08:45:25;5.57;;;2.22;;
59167;SDS011;70412;55.048;73.268;2024-03-02T08:48:28;5.00;;;2.83;;
59167;SDS011;70412;55.048;73.268;2024-03-02T08:51:31;15.00;;;5.28;;
59167;SDS011;70412;55.048;73.268;2024-03-02T08:54:33;10.30;;;3.40;;
59167;SDS011;70412;55.048;73.268;2024-03-02T08:57:37;12.48;;;3.60;;
59167;SDS011;70412;55.048;73.268;2024-03-02T09:01:16;8.48;;;3.65;;
59167;SDS011;70412;55.048;73.268;2024-03-02T09:04:21;8.57;;;3.15;;
59167;SDS011;70412;55.048;73.268;2024-03-02T09:07:24;7.57;;;3.20;;
59167;SDS011;70412;55.048;73.268;2024-03-02T09:10:27;11.90;;;4.50;;
59167;SDS011;70412;55.048;73.268;2024-03-02T09:13:30;13.18;;;4.85;;
59167;SDS011;70412;55.048;73.268;2024-03-02T09:16:33;10.10;;;3.63;;
59167;SDS011;70412;55.048;73.268;2024-03-02T09:19:36;4.63;;;2.55;;
59167;SDS011;70412;55.048;73.268;2024-03-02T09:22:50;9.82;;;3.50;;
59167;SDS011;70412;55.048;73.268;2024-03-02T09:29:32;7.63;;;2.58;;
59167;SDS011;70412;55.048;73.268;2024-03-02T09:32:34;5.13;;;2.33;;
59167;SDS011;70412;55.048;73.268;2024-03-02T09:36:21;9.73;;;2.65;;
59167;SDS011;70412;55.048;73.268;2024-03-02T09:39:25;6.53;;;3.10;;
59167;SDS011;70412;55.048;73.268;2024-03-02T09:42:28;12.32;;;3.60;;
59167;SDS011;70412;55.048;73.268;2024-03-02T09:45:31;7.90;;;3.22;;
59167;SDS011;70412;55.048;73.268;2024-03-02T09:48:34;8.60;;;3.42;;
59167;SDS011;70412;55.048;73.268;2024-03-02T09:51:37;12.93;;;4.10;;
59167;SDS011;70412;55.048;73.268;2024-03-02T09:54:39;15.85;;;4.63;;
59167;SDS011;70412;55.048;73.268;2024-03-02T09:57:42;12.88;;;3.40;;
59167;SDS011;70412;55.048;73.268;2024-03-02T10:01:16;22.25;;;3.78;;
59167;SDS011;70412;55.048;73.268;2024-03-02T10:04:31;14.75;;;5.82;;
59167;SDS011;70412;55.048;73.268;2024-03-02T10:07:34;12.10;;;4.78;;
59167;SDS011;70412;55.048;73.268;2024-03-02T10:11:26;8.44;;;2.60;;
59167;SDS011;70412;55.048;73.268;2024-03-02T10:14:34;15.40;;;3.67;;
59167;SDS011;70412;55.048;73.268;2024-03-02T10:17:37;16.48;;;3.60;;
59167;SDS011;70412;55.048;73.268;2024-03-02T10:21:16;10.52;;;2.92;;
59167;SDS011;70412;55.048;73.268;2024-03-02T10:24:22;7.75;;;2.75;;
59167;SDS011;70412;55.048;73.268;2024-03-02T10:27:26;7.25;;;2.10;;
59167;SDS011;70412;55.048;73.268;2024-03-02T10:30:30;4.60;;;1.90;;
59167;SDS011;70412;55.048;73.268;2024-03-02T10:33:33;6.65;;;2.38;;
59167;SDS011;70412;55.048;73.268;2024-03-02T10:36:36;11.93;;;2.40;;
59167;SDS011;70412;55.048;73.268;2024-03-02T10:39:42;8.35;;;2.65;;
59167;SDS011;70412;55.048;73.268;2024-03-02T10:42:45;6.47;;;2.17;;
59167;SDS011;70412;55.048;73.268;2024-03-02T10:46:16;7.25;;;4.15;;
59167;SDS011;70412;55.048;73.268;2024-03-02T10:49:24;8.73;;;2.75;;
59167;SDS011;70412;55.048;73.268;2024-03-02T10:52:29;5.60;;;2.03;;
59167;SDS011;70412;55.048;73.268;2024-03-02T10:55:32;4.07;;;2.10;;
59167;SDS011;70412;55.048;73.268;2024-03-02T10:58:34;13.23;;;2.08;;
59167;SDS011;70412;55.048;73.268;2024-03-02T11:01:38;7.68;;;3.08;;
59167;SDS011;70412;55.048;73.268;2024-03-02T11:04:41;18.15;;;3.03;;
59167;SDS011;70412;55.048;73.268;2024-03-02T11:07:44;7.03;;;2.95;;
59167;SDS011;70412;55.048;73.268;2024-03-02T11:11:18;4.57;;;1.60;;
59167;SDS011;70412;55.048;73.268;2024-03-02T11:14:29;7.45;;;2.78;;
59167;SDS011;70412;55.048;73.268;2024-03-02T11:17:36;6.47;;;2.38;;
59167;SDS011;70412;55.048;73.268;2024-03-02T11:21:16;7.80;;;1.90;;
59167;SDS011;70412;55.048;73.268;2024-03-02T11:31:16;10.00;;;1.75;;
59167;SDS011;70412;55.048;73.268;2024-03-02T11:34:32;5.70;;;2.00;;
59167;SDS011;70412;55.048;73.268;2024-03-02T11:37:36;4.72;;;1.33;;
59167;SDS011;70412;55.048;73.268;2024-03-02T11:41:16;2.53;;;1.10;;
59167;SDS011;70412;55.048;73.268;2024-03-02T11:44:19;2.65;;;1.38;;
59167;SDS011;70412;55.048;73.268;2024-03-02T11:47:22;2.58;;;1.30;;
59167;SDS011;70412;55.048;73.268;2024-03-02T11:51:07;3.10;;;1.30;;
59167;SDS011;70412;55.048;73.268;2024-03-02T11:54:06;3.20;;;1.30;;
59167;SDS011;70412;55.048;73.268;2024-03-02T11:57:09;1.50;;;1.05;;
59167;SDS011;70412;55.048;73.268;2024-03-02T12:00:21;3.85;;;1.27;;
59167;SDS011;70412;55.048;73.268;2024-03-02T12:03:24;3.10;;;1.20;;
59167;SDS011;70412;55.048;73.268;2024-03-02T12:06:27;2.17;;;1.27;;
59167;SDS011;70412;55.048;73.268;2024-03-02T12:09:31;2.38;;;1.08;;
59167;SDS011;70412;55.048;73.268;2024-03-02T12:12:36;4.35;;;1.30;;
59167;SDS011;70412;55.048;73.268;2024-03-02T12:16:22;3.35;;;1.10;;
59167;SDS011;70412;55.048;73.268;2024-03-02T12:19:45;2.70;;;1.35;;
59167;SDS011;70412;55.048;73.268;2024-03-02T12:22:49;5.28;;;1.95;;
59167;SDS011;70412;55.048;73.268;2024-03-02T12:29:19;1.83;;;0.90;;
59167;SDS011;70412;55.048;73.268;2024-03-02T12:32:23;3.80;;;1.55;;
59167;SDS011;70412;55.048;73.268;2024-03-02T12:35:26;24.80;;;2.78;;
59167;SDS011;70412;55.048;73.268;2024-03-02T12:38:28;7.43;;;1.83;;
59167;SDS011;70412;55.048;73.268;2024-03-02T12:41:31;7.75;;;1.70;;
59167;SDS011;70412;55.048;73.268;2024-03-02T12:44:34;2.42;;;1.20;;
59167;SDS011;70412;55.048;73.268;2024-03-02T12:47:37;2.83;;;1.27;;
59167;SDS011;70412;55.048;73.268;2024-03-02T12:51:16;5.45;;;1.58;;
59167;SDS011;70412;55.048;73.268;2024-03-02T12:54:22;3.22;;;0.95;;
59167;SDS011;70412;55.048;73.268;2024-03-02T12:57:26;2.83;;;1.10;;
59167;SDS011;70412;55.048;73.268;2024-03-02T13:01:16;2.75;;;1.20;;
59167;SDS011;70412;55.048;73.268;2024-03-02T13:04:24;3.83;;;1.50;;
59167;SDS011;70412;55.048;73.268;2024-03-02T13:07:28;3.38;;;1.40;;
59167;SDS011;70412;55.048;73.268;2024-03-02T13:11:16;1.95;;;0.95;;
59167;SDS011;70412;55.048;73.268;2024-03-02T13:14:21;3.97;;;1.30;;
59167;SDS011;70412;55.048;73.268;2024-03-02T13:17:26;5.30;;;1.60;;
59167;SDS011;70412;55.048;73.268;2024-03-02T13:20:32;2.95;;;1.35;;
59167;SDS011;70412;55.048;73.268;2024-03-02T13:23:35;3.93;;;1.60;;
59167;SDS011;70412;55.048;73.268;2024-03-02T13:26:38;3.72;;;1.60;;
59167;SDS011;70412;55.048;73.268;2024-03-02T13:29:42;3.70;;;1.35;;
59167;SDS011;70412;55.048;73.268;2024-03-02T13:32:45;4.85;;;2.25;;
59167;SDS011;70412;55.048;73.268;2024-03-02T13:36:17;4.40;;;1.55;;
59167;SDS011;70412;55.048;73.268;2024-03-02T13:39:24;8.32;;;2.63;;
59167;SDS011;70412;55.048;73.268;2024-03-02T13:42:27;6.32;;;2.30;;
59167;SDS011;70412;55.048;73.268;2024-03-02T13:46:16;6.28;;;2.50;;
59167;SDS011;70412;55.048;73.268;2024-03-02T13:49:19;5.38;;;1.67;;
59167;SDS011;70412;55.048;73.268;2024-03-02T13:52:44;6.25;;;2.00;;
59167;SDS011;70412;55.048;73.268;2024-03-02T13:59:40;7.15;;;2.05;;
59167;SDS011;70412;55.048;73.268;2024-03-02T14:02:43;6.72;;;2.78;;
59167;SDS011;70412;55.048;73.268;2024-03-02T14:06:17;7.45;;;2.85;;
59167;SDS011;70412;55.048;73.268;2024-03-02T14:09:20;8.20;;;3.13;;
59167;SDS011;70412;55.048;73.268;2024-03-02T14:12:35;6.97;;;2.90;;
59167;SDS011;70412;55.048;73.268;2024-03-02T14:16:16;7.07;;;3.13;;
59167;SDS011;70412;55.048;73.268;2024-03-02T14:19:19;5.15;;;2.05;;
59167;SDS011;70412;55.048;73.268;2024-03-02T14:22:23;4.32;;;1.50;;
59167;SDS011;70412;55.048;73.268;2024-03-02T14:25:25;17.30;;;3.15;;
59167;SDS011;70412;55.048;73.268;2024-03-02T14:28:28;13.13;;;3.78;;
59167;SDS011;70412;55.048;73.268;2024-03-02T14:31:31;12.32;;;3.92;;
59167;SDS011;70412;55.048;73.268;2024-03-02T14:34:34;13.52;;;4.43;;
59167;SDS011;70412;55.048;73.268;2024-03-02T14:37:37;10.10;;;3.60;;
59167;SDS011;70412;55.048;73.268;2024-03-02T14:41:16;16.88;;;3.90;;
59167;SDS011;70412;55.048;73.268;2024-03-02T14:44:19;12.40;;;3.90;;
59167;SDS011;70412;55.048;73.268;2024-03-02T14:47:22;15.65;;;3.90;;
59167;SDS011;70412;55.048;73.268;2024-03-02T14:50:25;13.18;;;4.38;;
59167;SDS011;70412;55.048;73.268;2024-03-02T14:53:29;13.25;;;4.38;;
59167;SDS011;70412;55.048;73.268;2024-03-02T14:56:31;23.02;;;4.68;;
59167;SDS011;70412;55.048;73.268;2024-03-02T14:59:34;6.78;;;2.10;;
59167;SDS011;70412;55.048;73.268;2024-03-02T15:02:39;7.10;;;2.42;;
59167;SDS011;70412;55.048;73.268;2024-03-02T15:06:17;6.93;;;3.17;;
59167;SDS011;70412;55.048;73.268;2024-03-02T15:09:20;11.32;;;3.25;;
59167;SDS011;70412;55.048;73.268;2024-03-02T15:12:23;11.32;;;4.22;;
59167;SDS011;70412;55.048;73.268;2024-03-02T15:15:26;9.75;;;3.28;;
59167;SDS011;70412;55.048;73.268;2024-03-02T15:18:28;4.75;;;1.75;;
59167;SDS011;70412;55.048;73.268;2024-03-02T15:21:31;3.00;;;1.33;;
59167;SDS011;70412;55.048;73.268;2024-03-02T15:24:33;5.85;;;2.17;;
59167;SDS011;70412;55.048;73.268;2024-03-02T15:27:35;4.10;;;1.63;;
59167;SDS011;70412;55.048;73.268;2024-03-02T15:31:16;3.70;;;1.80;;
59167;SDS011;70412;55.048;73.268;2024-03-02T15:34:19;3.20;;;1.50;;
59167;SDS011;70412;55.048;73.268;2024-03-02T15:37:21;4.00;;;1.20;;
59167;SDS011;70412;55.048;73.268;2024-03-02T15:40:24;5.22;;;1.70;;
59167;SDS011;70412;55.048;73.268;2024-03-02T15:43:27;6.43;;;2.30;;
59167;SDS011;70412;55.048;73.268;2024-03-02T15:46:30;4.78;;;1.88;;
59167;SDS011;70412;55.048;73.268;2024-03-02T15:49:33;7.82;;;1.58;;
59167;SDS011;70412;55.048;73.268;2024-03-02T15:52:36;14.32;;;2.00;;
59167;SDS011;70412;55.048;73.268;2024-03-02T15:56:16;11.85;;;2.47;;
59167;SDS011;70412;55.048;73.268;2024-03-02T15:59:19;17.85;;;3.33;;
59167;SDS011;70412;55.048;73.268;2024-03-02T16:02:22;11.93;;;2.72;;
59167;SDS011;70412;55.048;73.268;2024-03-02T16:05:24;8.07;;;2.17;;
59167;SDS011;70412;55.048;73.268;2024-03-02T16:08:27;14.43;;;3.35;;
59167;SDS011;70412;55.048;73.268;2024-03-02T16:11:29;8.75;;;2.92;;
59167;SDS011;70412;55.048;73.268;2024-03-02T16:14:32;11.55;;;1.77;;
59167;SDS011;70412;55.048;73.268;2024-03-02T16:17:36;8.27;;;2.53;;
59167;SDS011;70412;55.048;73.268;2024-03-02T16:21:16;7.53;;;1.80;;
59167;SDS011;70412;55.048;73.268;2024-03-02T16:24:19;5.75;;;1.73;;
59167;SDS011;70412;55.048;73.268;2024-03-02T16:27:23;9.70;;;2.35;;
59167;SDS011;70412;55.048;73.268;2024-03-02T16:30:26;6.95;;;3.08;;
59167;SDS011;70412;55.048;73.268;2024-03-02T16:33:28;6.47;;;1.83;;
59167;SDS011;70412;55.048;73.268;2024-03-02T16:36:31;8.85;;;3.72;;
59167;SDS011;70412;55.048;73.268;2024-03-02T16:39:36;4.60;;;2.60;;
59167;SDS011;70412;55.048;73.268;2024-03-02T16:42:40;9.15;;;2.38;;
59167;SDS011;70412;55.048;73.268;2024-03-02T16:46:16;8.68;;;2.08;;
59167;SDS011;70412;55.048;73.268;2024-03-02T16:49:19;6.63;;;2.17;;
59167;SDS011;70412;55.048;73.268;2024-03-02T16:52:21;16.73;;;4.70;;
59167;SDS011;70412;55.048;73.268;2024-03-02T16:55:26;9.73;;;2.85;;
59167;SDS011;70412;55.048;73.268;2024-03-02T16:58:28;3.65;;;1.58;;
59167;SDS011;70412;55.048;73.268;2024-03-02T17:01:31;13.52;;;3.25;;
59167;SDS011;70412;55.048;73.268;2024-03-02T17:04:33;20.38;;;4.43;;
59167;SDS011;70412;55.048;73.268;2024-03-02T17:07:48;15.88;;;3.22;;
59167;SDS011;70412;55.048;73.268;2024-03-02T17:11:16;14.95;;;1.95;;
59167;SDS011;70412;55.048;73.268;2024-03-02T17:14:19;10.15;;;3.10;;
59167;SDS011;70412;55.048;73.268;2024-03-02T17:17:22;8.50;;;2.60;;
59167;SDS011;70412;55.048;73.268;2024-03-02T17:20:25;22.65;;;6.28;;
59167;SDS011;70412;55.048;73.268;2024-03-02T17:23:27;31.75;;;13.05;;
59167;SDS011;70412;55.048;73.268;2024-03-02T17:26:32;20.35;;;4.45;;
59167;SDS011;70412;55.048;73.268;2024-03-02T17:29:35;16.13;;;6.30;;
59167;SDS011;70412;55.048;73.268;2024-03-02T17:32:38;25.23;;;8.18;;
59167;SDS011;70412;55.048;73.268;2024-03-02T17:36:17;132.95;;;32.80;;
59167;SDS011;70412;55.048;73.268;2024-03-02T17:39:20;440.08;;;117.28;;
59167;SDS011;70412;55.048;73.268;2024-03-02T17:42:22;204.75;;;56.83;;
59167;SDS011;70412;55.048;73.268;2024-03-02T17:45:25;219.80;;;50.78;;
59167;SDS011;70412;55.048;73.268;2024-03-02T17:48:27;61.30;;;20.95;;
59167;SDS011;70412;55.048;73.268;2024-03-02T17:51:32;133.27;;;33.95;;
59167;SDS011;70412;55.048;73.268;2024-03-02T17:54:34;13.77;;;6.03;;
59167;SDS011;70412;55.048;73.268;2024-03-02T17:57:37;42.95;;;18.42;;
59167;SDS011;70412;55.048;73.268;2024-03-02T18:01:16;34.28;;;17.98;;
59167;SDS011;70412;55.048;73.268;2024-03-02T18:04:19;64.30;;;27.90;;
59167;SDS011;70412;55.048;73.268;2024-03-02T18:07:23;33.07;;;17.90;;
59167;SDS011;70412;55.048;73.268;2024-03-02T18:10:26;12.38;;;6.28;;
59167;SDS011;70412;55.048;73.268;2024-03-02T18:13:30;4.35;;;2.28;;
59167;SDS011;70412;55.048;73.268;2024-03-02T18:16:35;25.83;;;11.87;;
59167;SDS011;70412;55.048;73.268;2024-03-02T18:19:38;10.52;;;3.50;;
59167;SDS011;70412;55.048;73.268;2024-03-02T18:22:40;10.63;;;4.10;;
59167;SDS011;70412;55.048;73.268;2024-03-02T18:26:16;9.38;;;2.50;;
59167;SDS011;70412;55.048;73.268;2024-03-02T18:29:19;6.35;;;2.67;;
59167;SDS011;70412;55.048;73.268;2024-03-02T18:32:22;6.93;;;1.90;;
59167;SDS011;70412;55.048;73.268;2024-03-02T18:36:17;5.13;;;2.17;;
59167;SDS011;70412;55.048;73.268;2024-03-02T18:39:20;6.10;;;2.17;;
59167;SDS011;70412;55.048;73.268;2024-03-02T18:42:22;4.47;;;2.10;;
59167;SDS011;70412;55.048;73.268;2024-03-02T18:45:25;8.00;;;3.22;;
59167;SDS011;70412;55.048;73.268;2024-03-02T18:48:28;6.25;;;2.00;;